sensor_id;sensor_type;location;lat;lon;timestamp;pressure;altitude;pressure_sealevel;temperature;humidity
40315;BME280;26021;45.640;11.302;2023-07-24T00:01:55;98630.41;;;22.06;100.00
40315;BME280;26021;45.640;11.302;2023-07-24T00:04:21;98664.13;;;22.27;100.00
40315;BME280;26021;45.640;11.302;2023-07-24T00:06:47;98660.47;;;22.38;100.00
40315;BME280;26021;45.640;11.302;2023-07-24T00:09:12;98663.88;;;22.28;100.00
40315;BME280;26021;45.640;11.302;2023-07-24T00:11:37;98670.88;;;22.19;100.00
40315;BME280;26021;45.640;11.302;2023-07-24T00:14:03;98648.50;;;21.95;100.00
40315;BME280;26021;45.640;11.302;2023-07-24T00:16:28;98669.88;;;22.03;100.00
40315;BME280;26021;45.640;11.302;2023-07-24T00:18:54;98668.03;;;22.09;100.00
40315;BME280;26021;45.640;11.302;2023-07-24T00:21:19;98677.19;;;22.25;100.00
40315;BME280;26021;45.640;11.302;2023-07-24T00:23:45;98674.50;;;22.03;100.00
40315;BME280;26021;45.640;11.302;2023-07-24T00:26:10;98668.41;;;22.17;100.00
40315;BME280;26021;45.640;11.302;2023-07-24T00:28:35;98664.38;;;22.25;100.00
40315;BME280;26021;45.640;11.302;2023-07-24T00:31:01;98652.94;;;22.23;100.00
40315;BME280;26021;45.640;11.302;2023-07-24T00:33:26;98653.34;;;22.37;100.00
40315;BME280;26021;45.640;11.302;2023-07-24T00:35:55;98645.88;;;22.27;100.00
40315;BME280;26021;45.640;11.302;2023-07-24T00:38:22;98653.22;;;22.27;100.00
40315;BME280;26021;45.640;11.302;2023-07-24T00:40:48;98648.13;;;22.08;100.00
40315;BME280;26021;45.640;11.302;2023-07-24T00:43:13;98637.25;;;22.08;100.00
40315;BME280;26021;45.640;11.302;2023-07-24T00:45:38;98648.25;;;21.97;100.00
40315;BME280;26021;45.640;11.302;2023-07-24T00:48:04;98649.72;;;22.04;100.00
40315;BME280;26021;45.640;11.302;2023-07-24T00:50:32;98563.53;;;21.44;100.00
40315;BME280;26021;45.640;11.302;2023-07-24T00:52:58;98643.78;;;21.85;100.00
40315;BME280;26021;45.640;11.302;2023-07-24T00:55:23;98639.97;;;22.08;100.00
40315;BME280;26021;45.640;11.302;2023-07-24T00:57:49;98641.63;;;22.09;100.00
40315;BME280;26021;45.640;11.302;2023-07-24T01:00:15;98621.28;;;21.95;100.00
40315;BME280;26021;45.640;11.302;2023-07-24T01:02:42;98579.91;;;21.71;100.00
40315;BME280;26021;45.640;11.302;2023-07-24T01:05:08;98630.66;;;22.04;100.00
40315;BME280;26021;45.640;11.302;2023-07-24T01:07:35;98632.75;;;21.97;100.00
40315;BME280;26021;45.640;11.302;2023-07-24T01:10:00;98628.88;;;21.93;100.00
40315;BME280;26021;45.640;11.302;2023-07-24T01:12:27;98624.63;;;22.02;100.00
40315;BME280;26021;45.640;11.302;2023-07-24T01:15:13;98626.09;;;22.10;100.00
40315;BME280;26021;45.640;11.302;2023-07-24T01:17:49;98628.19;;;21.81;100.00
40315;BME280;26021;45.640;11.302;2023-07-24T01:20:17;98626.81;;;21.78;100.00
40315;BME280;26021;45.640;11.302;2023-07-24T01:25:45;98587.94;;;21.83;100.00
40315;BME280;26021;45.640;11.302;2023-07-24T01:28:10;98626.78;;;22.00;100.00
40315;BME280;26021;45.640;11.302;2023-07-24T01:30:36;98609.22;;;21.86;100.00
40315;BME280;26021;45.640;11.302;2023-07-24T01:33:01;98575.75;;;21.42;100.00
40315;BME280;26021;45.640;11.302;2023-07-24T01:35:27;98617.50;;;21.74;100.00
40315;BME280;26021;45.640;11.302;2023-07-24T01:37:56;98612.44;;;21.83;100.00
40315;BME280;26021;45.640;11.302;2023-07-24T01:40:23;98556.50;;;21.48;100.00
40315;BME280;26021;45.640;11.302;2023-07-24T01:42:48;98612.06;;;21.74;100.00
40315;BME280;26021;45.640;11.302;2023-07-24T01:45:15;98610.31;;;21.63;100.00
40315;BME280;26021;45.640;11.302;2023-07-24T01:47:40;98617.47;;;21.69;100.00
40315;BME280;26021;45.640;11.302;2023-07-24T01:50:06;98619.09;;;21.70;100.00
40315;BME280;26021;45.640;11.302;2023-07-24T01:52:32;98609.81;;;21.66;100.00
40315;BME280;26021;45.640;11.302;2023-07-24T01:54:57;98612.25;;;21.68;100.00
40315;BME280;26021;45.640;11.302;2023-07-24T01:57:23;98578.00;;;21.50;100.00
40315;BME280;26021;45.640;11.302;2023-07-24T01:59:48;98611.69;;;21.66;100.00
40315;BME280;26021;45.640;11.302;2023-07-24T02:02:14;98608.78;;;21.72;100.00
40315;BME280;26021;45.640;11.302;2023-07-24T02:04:39;98606.25;;;21.66;100.00
40315;BME280;26021;45.640;11.302;2023-07-24T02:07:05;98597.97;;;21.55;100.00
40315;BME280;26021;45.640;11.302;2023-07-24T02:09:30;98601.44;;;21.73;100.00
40315;BME280;26021;45.640;11.302;2023-07-24T02:11:55;98593.78;;;21.70;100.00
40315;BME280;26021;45.640;11.302;2023-07-24T02:14:21;98567.44;;;21.53;100.00
40315;BME280;26021;45.640;11.302;2023-07-24T02:16:46;98530.94;;;21.28;100.00
40315;BME280;26021;45.640;11.302;2023-07-24T02:19:12;98558.28;;;21.38;100.00
40315;BME280;26021;45.640;11.302;2023-07-24T02:21:37;98606.75;;;21.63;100.00
40315;BME280;26021;45.640;11.302;2023-07-24T02:24:03;98607.53;;;21.58;100.00
40315;BME280;26021;45.640;11.302;2023-07-24T02:26:29;98603.44;;;21.39;100.00
40315;BME280;26021;45.640;11.302;2023-07-24T02:28:54;98602.91;;;21.59;100.00
40315;BME280;26021;45.640;11.302;2023-07-24T02:31:19;98601.81;;;21.60;100.00
40315;BME280;26021;45.640;11.302;2023-07-24T02:33:45;98609.75;;;21.61;100.00
40315;BME280;26021;45.640;11.302;2023-07-24T02:36:10;98600.28;;;21.47;100.00
40315;BME280;26021;45.640;11.302;2023-07-24T02:38:36;98555.56;;;21.38;100.00
40315;BME280;26021;45.640;11.302;2023-07-24T02:41:02;98598.38;;;21.47;100.00
40315;BME280;26021;45.640;11.302;2023-07-24T02:43:27;98589.91;;;21.44;100.00
40315;BME280;26021;45.640;11.302;2023-07-24T02:45:52;98552.28;;;21.36;100.00
40315;BME280;26021;45.640;11.302;2023-07-24T02:48:18;98523.47;;;21.18;100.00
40315;BME280;26021;45.640;11.302;2023-07-24T02:50:43;98570.34;;;21.47;100.00
40315;BME280;26021;45.640;11.302;2023-07-24T02:53:09;98528.66;;;21.19;100.00
40315;BME280;26021;45.640;11.302;2023-07-24T02:55:34;98572.88;;;21.32;100.00
40315;BME280;26021;45.640;11.302;2023-07-24T02:58:00;98569.16;;;21.38;100.00
40315;BME280;26021;45.640;11.302;2023-07-24T03:00:25;98578.41;;;21.59;100.00
40315;BME280;26021;45.640;11.302;2023-07-24T03:02:52;98542.84;;;21.43;100.00
40315;BME280;26021;45.640;11.302;2023-07-24T03:05:17;98542.25;;;21.19;100.00
40315;BME280;26021;45.640;11.302;2023-07-24T03:07:43;98547.53;;;21.26;100.00
40315;BME280;26021;45.640;11.302;2023-07-24T03:10:09;98545.75;;;21.37;100.00
40315;BME280;26021;45.640;11.302;2023-07-24T03:12:34;98542.88;;;21.48;100.00
40315;BME280;26021;45.640;11.302;2023-07-24T03:14:59;98516.91;;;21.36;100.00
40315;BME280;26021;45.640;11.302;2023-07-24T03:17:25;98535.56;;;21.49;100.00
40315;BME280;26021;45.640;11.302;2023-07-24T03:19:50;98546.38;;;21.44;100.00
40315;BME280;26021;45.640;11.302;2023-07-24T03:22:16;98500.06;;;20.95;100.00
40315;BME280;26021;45.640;11.302;2023-07-24T03:24:41;98491.84;;;20.90;100.00
40315;BME280;26021;45.640;11.302;2023-07-24T03:27:06;98521.41;;;21.25;100.00
40315;BME280;26021;45.640;11.302;2023-07-24T03:29:32;98507.34;;;21.11;100.00
40315;BME280;26021;45.640;11.302;2023-07-24T03:31:57;98511.84;;;21.44;100.00
40315;BME280;26021;45.640;11.302;2023-07-24T03:34:23;98410.09;;;20.75;100.00
40315;BME280;26021;45.640;11.302;2023-07-24T03:36:48;98519.75;;;21.46;100.00
40315;BME280;26021;45.640;11.302;2023-07-24T03:39:14;98529.59;;;21.52;100.00
40315;BME280;26021;45.640;11.302;2023-07-24T03:41:42;98532.00;;;21.48;100.00
40315;BME280;26021;45.640;11.302;2023-07-24T03:44:08;98534.31;;;21.35;100.00
40315;BME280;26021;45.640;11.302;2023-07-24T03:46:33;98406.78;;;20.51;100.00
40315;BME280;26021;45.640;11.302;2023-07-24T03:48:59;98540.06;;;21.38;100.00
40315;BME280;26021;45.640;11.302;2023-07-24T03:51:25;98537.53;;;21.32;100.00
40315;BME280;26021;45.640;11.302;2023-07-24T03:53:50;98467.47;;;20.78;100.00
40315;BME280;26021;45.640;11.302;2023-07-24T03:56:16;98522.41;;;21.41;100.00
40315;BME280;26021;45.640;11.302;2023-07-24T03:58:41;98509.88;;;21.40;100.00
40315;BME280;26021;45.640;11.302;2023-07-24T04:01:07;98518.72;;;21.52;100.00
40315;BME280;26021;45.640;11.302;2023-07-24T04:03:33;98474.09;;;21.26;100.00
40315;BME280;26021;45.640;11.302;2023-07-24T04:05:59;98535.44;;;21.61;100.00
40315;BME280;26021;45.640;11.302;2023-07-24T04:08:24;98534.94;;;21.64;100.00
40315;BME280;26021;45.640;11.302;2023-07-24T04:10:50;98542.75;;;21.82;100.00
40315;BME280;26021;45.640;11.302;2023-07-24T04:13:15;98524.66;;;21.71;100.00
40315;BME280;26021;45.640;11.302;2023-07-24T04:15:41;98549.25;;;21.81;100.00
40315;BME280;26021;45.640;11.302;2023-07-24T04:18:06;98546.53;;;21.81;100.00
40315;BME280;26021;45.640;11.302;2023-07-24T04:20:31;98559.78;;;21.72;100.00
40315;BME280;26021;45.640;11.302;2023-07-24T04:22:57;98494.56;;;21.34;100.00
40315;BME280;26021;45.640;11.302;2023-07-24T04:25:22;98559.06;;;21.82;100.00
40315;BME280;26021;45.640;11.302;2023-07-24T04:27:48;98554.28;;;21.94;100.00
40315;BME280;26021;45.640;11.302;2023-07-24T04:30:13;98552.34;;;22.16;100.00
40315;BME280;26021;45.640;11.302;2023-07-24T04:32:39;98568.13;;;22.14;100.00
40315;BME280;26021;45.640;11.302;2023-07-24T04:35:05;98551.34;;;22.01;100.00
40315;BME280;26021;45.640;11.302;2023-07-24T04:37:31;98579.38;;;22.23;100.00
40315;BME280;26021;45.640;11.302;2023-07-24T04:39:56;98577.47;;;22.24;100.00
40315;BME280;26021;45.640;11.302;2023-07-24T04:42:21;98567.69;;;22.28;100.00
40315;BME280;26021;45.640;11.302;2023-07-24T04:44:47;98581.06;;;22.29;100.00
40315;BME280;26021;45.640;11.302;2023-07-24T04:47:12;98587.53;;;22.23;100.00
40315;BME280;26021;45.640;11.302;2023-07-24T04:49:40;98561.75;;;22.31;100.00
40315;BME280;26021;45.640;11.302;2023-07-24T04:52:06;98571.88;;;22.35;100.00
40315;BME280;26021;45.640;11.302;2023-07-24T04:54:31;98573.09;;;22.23;100.00
40315;BME280;26021;45.640;11.302;2023-07-24T04:56:56;98569.34;;;22.29;100.00
40315;BME280;26021;45.640;11.302;2023-07-24T04:59:22;98572.44;;;22.37;100.00
40315;BME280;26021;45.640;11.302;2023-07-24T05:01:49;98581.53;;;22.48;100.00
40315;BME280;26021;45.640;11.302;2023-07-24T05:04:14;98585.06;;;22.48;100.00
40315;BME280;26021;45.640;11.302;2023-07-24T05:06:39;98594.09;;;22.54;100.00
40315;BME280;26021;45.640;11.302;2023-07-24T05:09:05;98609.63;;;22.54;100.00
40315;BME280;26021;45.640;11.302;2023-07-24T05:11:30;98619.53;;;22.97;100.00
40315;BME280;26021;45.640;11.302;2023-07-24T05:13:56;98623.34;;;22.96;100.00
40315;BME280;26021;45.640;11.302;2023-07-24T05:16:21;98625.81;;;22.97;100.00
40315;BME280;26021;45.640;11.302;2023-07-24T05:18:46;98636.13;;;22.90;100.00
40315;BME280;26021;45.640;11.302;2023-07-24T05:21:12;98585.78;;;22.71;100.00
40315;BME280;26021;45.640;11.302;2023-07-24T05:23:37;98640.97;;;23.20;100.00
40315;BME280;26021;45.640;11.302;2023-07-24T05:26:03;98573.00;;;22.76;100.00
40315;BME280;26021;45.640;11.302;2023-07-24T05:28:30;98634.69;;;23.20;100.00
40315;BME280;26021;45.640;11.302;2023-07-24T05:31:00;98624.81;;;23.08;100.00
40315;BME280;26021;45.640;11.302;2023-07-24T05:33:25;98442.47;;;22.38;100.00
40315;BME280;26021;45.640;11.302;2023-07-24T05:35:50;98552.97;;;23.45;100.00
40315;BME280;26021;45.640;11.302;2023-07-24T05:38:16;98572.94;;;23.56;100.00
40315;BME280;26021;45.640;11.302;2023-07-24T05:40:41;98581.63;;;23.48;100.00
40315;BME280;26021;45.640;11.302;2023-07-24T05:43:07;98590.06;;;23.41;100.00
40315;BME280;26021;45.640;11.302;2023-07-24T05:45:32;98555.63;;;23.30;100.00
40315;BME280;26021;45.640;11.302;2023-07-24T05:47:58;98566.63;;;23.50;100.00
40315;BME280;26021;45.640;11.302;2023-07-24T05:50:23;98538.88;;;23.68;100.00
40315;BME280;26021;45.640;11.302;2023-07-24T05:52:49;98536.13;;;23.63;100.00
40315;BME280;26021;45.640;11.302;2023-07-24T05:55:14;98369.41;;;22.82;100.00
40315;BME280;26021;45.640;11.302;2023-07-24T05:57:39;98511.34;;;23.90;100.00
40315;BME280;26021;45.640;11.302;2023-07-24T06:00:06;98516.25;;;23.83;100.00
40315;BME280;26021;45.640;11.302;2023-07-24T06:02:32;98529.13;;;24.03;100.00
40315;BME280;26021;45.640;11.302;2023-07-24T06:04:57;98502.34;;;23.85;100.00
40315;BME280;26021;45.640;11.302;2023-07-24T06:07:23;98520.69;;;24.35;100.00
40315;BME280;26021;45.640;11.302;2023-07-24T06:09:48;98543.34;;;24.25;100.00
40315;BME280;26021;45.640;11.302;2023-07-24T06:12:14;98529.91;;;23.83;100.00
40315;BME280;26021;45.640;11.302;2023-07-24T06:14:39;98474.72;;;23.71;100.00
40315;BME280;26021;45.640;11.302;2023-07-24T06:17:05;98534.03;;;24.06;100.00
40315;BME280;26021;45.640;11.302;2023-07-24T06:19:30;98517.66;;;24.06;100.00
40315;BME280;26021;45.640;11.302;2023-07-24T06:21:56;98488.97;;;24.29;100.00
40315;BME280;26021;45.640;11.302;2023-07-24T06:24:21;98501.25;;;24.26;100.00
40315;BME280;26021;45.640;11.302;2023-07-24T06:26:49;98503.47;;;24.29;100.00
40315;BME280;26021;45.640;11.302;2023-07-24T06:29:14;98489.78;;;24.60;100.00
40315;BME280;26021;45.640;11.302;2023-07-24T06:31:40;98489.22;;;24.68;100.00
40315;BME280;26021;45.640;11.302;2023-07-24T06:34:05;98505.84;;;24.92;100.00
40315;BME280;26021;45.640;11.302;2023-07-24T06:36:30;98358.78;;;24.74;100.00
40315;BME280;26021;45.640;11.302;2023-07-24T06:38:56;98498.75;;;25.65;100.00
40315;BME280;26021;45.640;11.302;2023-07-24T06:41:21;98487.53;;;25.57;100.00
40315;BME280;26021;45.640;11.302;2023-07-24T06:43:48;98429.78;;;24.99;100.00
40315;BME280;26021;45.640;11.302;2023-07-24T06:46:14;98486.59;;;25.27;100.00
40315;BME280;26021;45.640;11.302;2023-07-24T06:48:39;98506.56;;;25.23;100.00
40315;BME280;26021;45.640;11.302;2023-07-24T06:51:05;98509.59;;;25.21;100.00
40315;BME280;26021;45.640;11.302;2023-07-24T06:53:30;98393.22;;;24.75;100.00
40315;BME280;26021;45.640;11.302;2023-07-24T06:55:55;98501.47;;;25.60;100.00
40315;BME280;26021;45.640;11.302;2023-07-24T06:58:21;98454.94;;;25.60;100.00
40315;BME280;26021;45.640;11.302;2023-07-24T07:00:46;98450.28;;;26.00;100.00
40315;BME280;26021;45.640;11.302;2023-07-24T07:03:12;98495.19;;;26.43;100.00
40315;BME280;26021;45.640;11.302;2023-07-24T07:05:37;98502.63;;;26.38;100.00
40315;BME280;26021;45.640;11.302;2023-07-24T07:08:03;98463.16;;;26.00;100.00
40315;BME280;26021;45.640;11.302;2023-07-24T07:10:30;98510.84;;;26.04;100.00
40315;BME280;26021;45.640;11.302;2023-07-24T07:12:56;98503.59;;;26.18;100.00
40315;BME280;26021;45.640;11.302;2023-07-24T07:15:21;98459.69;;;26.23;100.00
40315;BME280;26021;45.640;11.302;2023-07-24T07:17:47;98454.53;;;26.74;100.00
40315;BME280;26021;45.640;11.302;2023-07-24T07:20:12;98474.56;;;27.04;100.00
40315;BME280;26021;45.640;11.302;2023-07-24T07:22:38;98505.53;;;26.80;100.00
40315;BME280;26021;45.640;11.302;2023-07-24T07:25:03;98486.47;;;26.65;100.00
40315;BME280;26021;45.640;11.302;2023-07-24T07:27:29;98484.72;;;26.74;100.00
40315;BME280;26021;45.640;11.302;2023-07-24T07:29:54;98495.34;;;27.10;100.00
40315;BME280;26021;45.640;11.302;2023-07-24T07:32:20;98508.19;;;27.14;100.00
40315;BME280;26021;45.640;11.302;2023-07-24T07:34:45;98476.69;;;26.83;100.00
40315;BME280;26021;45.640;11.302;2023-07-24T07:37:10;98520.28;;;27.13;100.00
40315;BME280;26021;45.640;11.302;2023-07-24T07:39:36;98533.97;;;27.37;100.00
40315;BME280;26021;45.640;11.302;2023-07-24T07:42:01;98554.53;;;27.40;100.00
40315;BME280;26021;45.640;11.302;2023-07-24T07:44:27;98559.81;;;27.12;100.00
40315;BME280;26021;45.640;11.302;2023-07-24T07:46:52;98578.97;;;27.41;100.00
40315;BME280;26021;45.640;11.302;2023-07-24T07:49:18;98575.19;;;27.13;100.00
40315;BME280;26021;45.640;11.302;2023-07-24T07:51:43;98430.13;;;26.20;100.00
40315;BME280;26021;45.640;11.302;2023-07-24T07:54:08;98383.72;;;25.65;100.00
40315;BME280;26021;45.640;11.302;2023-07-24T07:56:34;98463.69;;;25.68;100.00
40315;BME280;26021;45.640;11.302;2023-07-24T07:58:59;98451.94;;;25.57;100.00
40315;BME280;26021;45.640;11.302;2023-07-24T08:01:25;98428.25;;;25.37;100.00
40315;BME280;26021;45.640;11.302;2023-07-24T08:03:50;98432.41;;;25.74;100.00
40315;BME280;26021;45.640;11.302;2023-07-24T08:06:15;98427.75;;;26.08;100.00
40315;BME280;26021;45.640;11.302;2023-07-24T08:08:41;98407.09;;;26.50;100.00
40315;BME280;26021;45.640;11.302;2023-07-24T08:11:07;98404.19;;;26.89;100.00
40315;BME280;26021;45.640;11.302;2023-07-24T08:13:34;98384.06;;;27.17;100.00
40315;BME280;26021;45.640;11.302;2023-07-24T08:15:59;98416.78;;;27.33;100.00
40315;BME280;26021;45.640;11.302;2023-07-24T08:18:27;98422.34;;;27.09;100.00
40315;BME280;26021;45.640;11.302;2023-07-24T08:20:52;98408.78;;;27.17;100.00
40315;BME280;26021;45.640;11.302;2023-07-24T08:23:18;98407.13;;;27.16;100.00
40315;BME280;26021;45.640;11.302;2023-07-24T08:25:53;98368.34;;;26.56;100.00
40315;BME280;26021;45.640;11.302;2023-07-24T08:28:19;98295.78;;;25.67;100.00
40315;BME280;26021;45.640;11.302;2023-07-24T08:30:45;98338.06;;;26.43;100.00
40315;BME280;26021;45.640;11.302;2023-07-24T08:33:12;98350.00;;;27.00;100.00
40315;BME280;26021;45.640;11.302;2023-07-24T08:35:38;98378.94;;;27.48;100.00
40315;BME280;26021;45.640;11.302;2023-07-24T08:38:03;98373.22;;;27.45;100.00
40315;BME280;26021;45.640;11.302;2023-07-24T08:40:28;98383.69;;;27.05;100.00
40315;BME280;26021;45.640;11.302;2023-07-24T08:42:54;98492.81;;;26.89;100.00
40315;BME280;26021;45.640;11.302;2023-07-24T08:45:20;98522.84;;;26.47;100.00
40315;BME280;26021;45.640;11.302;2023-07-24T08:47:46;98491.78;;;26.22;100.00
40315;BME280;26021;45.640;11.302;2023-07-24T08:50:13;98432.47;;;26.03;100.00
40315;BME280;26021;45.640;11.302;2023-07-24T08:52:40;98410.38;;;25.89;100.00
40315;BME280;26021;45.640;11.302;2023-07-24T08:55:07;98450.06;;;25.91;100.00
40315;BME280;26021;45.640;11.302;2023-07-24T08:57:33;98458.78;;;26.04;100.00
40315;BME280;26021;45.640;11.302;2023-07-24T08:59:59;98400.59;;;25.78;100.00
40315;BME280;26021;45.640;11.302;2023-07-24T09:02:30;98470.81;;;26.66;100.00
40315;BME280;26021;45.640;11.302;2023-07-24T09:04:55;98459.84;;;27.37;100.00
40315;BME280;26021;45.640;11.302;2023-07-24T09:07:21;98428.50;;;27.62;100.00
40315;BME280;26021;45.640;11.302;2023-07-24T09:09:47;98446.66;;;27.58;100.00
40315;BME280;26021;45.640;11.302;2023-07-24T09:12:15;98407.97;;;27.36;100.00
40315;BME280;26021;45.640;11.302;2023-07-24T09:14:41;98445.41;;;27.69;100.00
40315;BME280;26021;45.640;11.302;2023-07-24T09:17:08;98433.47;;;27.79;100.00
40315;BME280;26021;45.640;11.302;2023-07-24T09:19:34;98447.97;;;27.98;100.00
40315;BME280;26021;45.640;11.302;2023-07-24T09:22:14;98444.56;;;28.25;100.00
40315;BME280;26021;45.640;11.302;2023-07-24T09:24:58;98377.59;;;27.83;100.00
40315;BME280;26021;45.640;11.302;2023-07-24T09:27:29;98432.19;;;27.71;100.00
40315;BME280;26021;45.640;11.302;2023-07-24T09:29:55;98431.81;;;27.78;100.00
40315;BME280;26021;45.640;11.302;2023-07-24T09:32:22;98468.69;;;28.09;100.00
40315;BME280;26021;45.640;11.302;2023-07-24T09:34:49;98512.84;;;27.99;100.00
40315;BME280;26021;45.640;11.302;2023-07-24T09:37:45;98517.66;;;27.89;100.00
40315;BME280;26021;45.640;11.302;2023-07-24T09:40:11;98520.53;;;27.36;100.00
40315;BME280;26021;45.640;11.302;2023-07-24T09:42:38;98548.72;;;27.22;100.00
40315;BME280;26021;45.640;11.302;2023-07-24T09:45:05;98525.13;;;26.98;100.00
40315;BME280;26021;45.640;11.302;2023-07-24T09:47:31;98510.03;;;26.95;100.00
40315;BME280;26021;45.640;11.302;2023-07-24T09:49:57;98526.28;;;27.39;100.00
40315;BME280;26021;45.640;11.302;2023-07-24T09:52:24;98518.19;;;27.48;100.00
40315;BME280;26021;45.640;11.302;2023-07-24T09:54:57;98494.25;;;26.53;100.00
40315;BME280;26021;45.640;11.302;2023-07-24T09:57:25;98527.66;;;26.60;100.00
40315;BME280;26021;45.640;11.302;2023-07-24T09:59:52;98509.75;;;26.68;100.00
40315;BME280;26021;45.640;11.302;2023-07-24T10:02:19;98555.69;;;26.52;100.00
40315;BME280;26021;45.640;11.302;2023-07-24T10:04:45;98570.63;;;26.70;100.00
40315;BME280;26021;45.640;11.302;2023-07-24T10:07:11;98554.25;;;26.59;100.00
40315;BME280;26021;45.640;11.302;2023-07-24T10:09:38;98511.00;;;26.51;100.00
40315;BME280;26021;45.640;11.302;2023-07-24T10:12:04;98497.38;;;26.41;100.00
40315;BME280;26021;45.640;11.302;2023-07-24T10:14:30;98430.06;;;26.54;100.00
40315;BME280;26021;45.640;11.302;2023-07-24T10:16:56;98421.16;;;26.43;100.00
40315;BME280;26021;45.640;11.302;2023-07-24T10:19:22;98416.44;;;26.97;100.00
40315;BME280;26021;45.640;11.302;2023-07-24T10:21:49;98373.53;;;26.82;100.00
40315;BME280;26021;45.640;11.302;2023-07-24T10:24:15;98333.72;;;26.84;100.00
40315;BME280;26021;45.640;11.302;2023-07-24T10:26:41;98395.06;;;26.94;100.00
40315;BME280;26021;45.640;11.302;2023-07-24T10:29:08;98408.03;;;27.12;100.00
40315;BME280;26021;45.640;11.302;2023-07-24T10:31:33;98360.53;;;27.11;100.00
40315;BME280;26021;45.640;11.302;2023-07-24T10:34:06;98399.88;;;27.44;100.00
40315;BME280;26021;45.640;11.302;2023-07-24T10:36:36;98384.72;;;27.47;100.00
40315;BME280;26021;45.640;11.302;2023-07-24T10:39:02;98250.44;;;26.94;100.00
40315;BME280;26021;45.640;11.302;2023-07-24T10:41:35;98353.56;;;27.75;100.00
40315;BME280;26021;45.640;11.302;2023-07-24T10:44:01;98343.97;;;27.73;100.00
40315;BME280;26021;45.640;11.302;2023-07-24T10:46:39;98335.47;;;27.88;100.00
40315;BME280;26021;45.640;11.302;2023-07-24T10:49:05;98296.38;;;27.77;100.00
40315;BME280;26021;45.640;11.302;2023-07-24T10:51:32;98330.22;;;28.19;100.00
40315;BME280;26021;45.640;11.302;2023-07-24T10:53:59;98336.03;;;28.17;100.00
40315;BME280;26021;45.640;11.302;2023-07-24T10:56:25;98351.09;;;28.06;100.00
40315;BME280;26021;45.640;11.302;2023-07-24T10:58:50;98346.31;;;27.66;100.00
40315;BME280;26021;45.640;11.302;2023-07-24T11:01:17;98345.00;;;27.77;98.85
40315;BME280;26021;45.640;11.302;2023-07-24T11:03:43;98335.66;;;27.59;100.00
40315;BME280;26021;45.640;11.302;2023-07-24T11:06:19;98312.63;;;27.22;100.00
40315;BME280;26021;45.640;11.302;2023-07-24T11:08:56;98285.69;;;27.25;100.00
40315;BME280;26021;45.640;11.302;2023-07-24T11:11:30;98275.16;;;27.13;100.00
40315;BME280;26021;45.640;11.302;2023-07-24T11:13:56;98297.78;;;27.05;100.00
40315;BME280;26021;45.640;11.302;2023-07-24T11:16:21;98237.91;;;26.88;100.00
40315;BME280;26021;45.640;11.302;2023-07-24T11:18:48;98301.97;;;27.53;100.00
40315;BME280;26021;45.640;11.302;2023-07-24T11:21:14;98320.00;;;27.92;98.29
40315;BME280;26021;45.640;11.302;2023-07-24T11:23:52;98350.16;;;27.97;100.00
40315;BME280;26021;45.640;11.302;2023-07-24T11:26:22;98364.69;;;27.84;100.00
40315;BME280;26021;45.640;11.302;2023-07-24T11:28:52;98361.22;;;27.92;100.00
40315;BME280;26021;45.640;11.302;2023-07-24T11:31:18;98278.03;;;27.21;100.00
40315;BME280;26021;45.640;11.302;2023-07-24T11:33:48;98302.38;;;26.90;100.00
40315;BME280;26021;45.640;11.302;2023-07-24T11:36:14;98331.91;;;26.99;100.00
40315;BME280;26021;45.640;11.302;2023-07-24T11:38:40;98307.19;;;26.80;100.00
40315;BME280;26021;45.640;11.302;2023-07-24T11:41:05;98308.25;;;27.03;100.00
40315;BME280;26021;45.640;11.302;2023-07-24T11:43:33;98315.78;;;26.92;100.00
40315;BME280;26021;45.640;11.302;2023-07-24T11:45:58;98307.22;;;26.75;100.00
40315;BME280;26021;45.640;11.302;2023-07-24T11:48:24;98324.22;;;26.77;100.00
40315;BME280;26021;45.640;11.302;2023-07-24T11:50:56;98328.53;;;26.59;100.00
40315;BME280;26021;45.640;11.302;2023-07-24T11:53:26;98291.03;;;26.54;100.00
40315;BME280;26021;45.640;11.302;2023-07-24T11:55:55;98238.03;;;26.40;100.00
40315;BME280;26021;45.640;11.302;2023-07-24T11:58:21;98165.41;;;25.71;100.00
40315;BME280;26021;45.640;11.302;2023-07-24T12:00:48;98340.50;;;26.20;100.00
40315;BME280;26021;45.640;11.302;2023-07-24T12:03:19;98236.44;;;25.23;100.00
40315;BME280;26021;45.640;11.302;2023-07-24T12:05:44;98355.47;;;26.04;100.00
40315;BME280;26021;45.640;11.302;2023-07-24T12:08:10;98373.28;;;26.02;100.00
40315;BME280;26021;45.640;11.302;2023-07-24T12:10:39;98281.47;;;25.75;100.00
40315;BME280;26021;45.640;11.302;2023-07-24T12:13:06;98305.06;;;26.00;100.00
40315;BME280;26021;45.640;11.302;2023-07-24T12:15:32;98268.44;;;25.62;100.00
40315;BME280;26021;45.640;11.302;2023-07-24T12:17:59;98292.38;;;25.80;100.00
40315;BME280;26021;45.640;11.302;2023-07-24T12:20:26;98280.03;;;25.83;100.00
40315;BME280;26021;45.640;11.302;2023-07-24T12:22:52;98264.53;;;25.97;100.00
40315;BME280;26021;45.640;11.302;2023-07-24T12:25:19;98236.22;;;26.07;100.00
40315;BME280;26021;45.640;11.302;2023-07-24T12:27:45;98140.38;;;25.78;100.00
40315;BME280;26021;45.640;11.302;2023-07-24T12:30:11;98224.53;;;26.44;100.00
40315;BME280;26021;45.640;11.302;2023-07-24T12:32:36;98203.94;;;26.65;100.00
40315;BME280;26021;45.640;11.302;2023-07-24T12:35:02;98180.75;;;26.39;100.00
40315;BME280;26021;45.640;11.302;2023-07-24T12:37:27;98176.38;;;26.56;100.00
40315;BME280;26021;45.640;11.302;2023-07-24T12:39:54;98151.84;;;26.65;100.00